Time;durP1;ratioP1;P1;durP2;ratioP2;P2;SDS_P1;SDS_P2;PMS_P1;PMS_P2;Temp;Humidity;BMP_temperature;BMP_pressure;BME280_temperature;BME280_humidity;BME280_pressure;Samples;Min_cycle;Max_cycle;Signal;HPM_P1;HPM_P2
2023/10/27 00:01:35;;;;;;;14.40;5.68;;;;;;;15.49;100.00;101784.19;5018652;28;20059;-70
2023/10/27 00:04:00;;;;;;;14.13;5.97;;;;;;;15.67;100.00;101823.19;5021536;28;20485;-70
2023/10/27 00:06:27;;;;;;;14.23;5.00;;;;;;;15.19;100.00;101753.13;5018579;28;20037;-70
2023/10/27 00:08:53;;;;;;;16.08;5.18;;;;;;;15.19;100.00;101758.25;5019435;28;20080;-70
2023/10/27 00:11:18;;;;;;;11.77;5.18;;;;;;;15.46;100.00;101806.47;5022095;28;20061;-70
2023/10/27 00:13:44;;;;;;;9.57;4.68;;;;;;;15.24;100.00;101770.09;5015749;28;20073;-70
2023/10/27 00:16:10;;;;;;;16.33;5.60;;;;;;;15.57;100.00;101836.16;5014631;28;20053;-70
2023/10/27 00:18:36;;;;;;;13.63;4.78;;;;;;;15.03;100.00;101752.56;5017494;28;20032;-70
2023/10/27 00:21:03;;;;;;;11.50;4.85;;;;;;;15.18;100.00;101795.84;5015445;28;20087;-70
2023/10/27 00:23:29;;;;;;;11.48;4.70;;;;;;;14.87;100.00;101781.00;5018495;28;20037;-70
2023/10/27 00:25:54;;;;;;;13.32;5.00;;;;;;;15.30;100.00;101858.84;5007924;28;20052;-70
2023/10/27 00:28:20;;;;;;;9.93;4.75;;;;;;;15.46;100.00;101881.66;5019772;28;20029;-69
2023/10/27 00:30:45;;;;;;;9.70;5.32;;;;;;;15.14;100.00;101836.91;5016401;28;20140;-69
2023/10/27 00:33:11;;;;;;;11.50;5.30;;;;;;;14.79;100.00;101814.44;5013773;28;20036;-69
2023/10/27 00:35:36;;;;;;;10.50;5.57;;;;;;;14.80;100.00;101866.50;5017887;28;20022;-69
2023/10/27 00:38:02;;;;;;;11.77;5.85;;;;;;;14.75;100.00;101913.50;5016493;28;20034;-70
2023/10/27 00:40:27;;;;;;;13.73;5.50;;;;;;;15.15;100.00;102017.97;5019121;28;20566;-70
2023/10/27 00:42:56;;;;;;;13.50;5.50;;;;;;;14.77;100.00;101990.31;5015968;28;20393;-69
2023/10/27 00:45:22;;;;;;;15.68;5.75;;;;;;;14.62;100.00;101991.34;5017526;28;20424;-69
2023/10/27 00:47:47;;;;;;;12.05;5.03;;;;;;;14.99;100.00;102086.50;5011095;28;20029;-70
2023/10/27 00:50:13;;;;;;;11.20;5.32;;;;;;;14.44;100.00;102011.19;5008105;28;20051;-70
2023/10/27 00:52:39;;;;;;;12.35;5.03;;;;;;;15.15;100.00;102134.13;5014225;28;20026;-69
2023/10/27 00:55:05;;;;;;;9.75;5.15;;;;;;;15.36;100.00;102174.03;5016465;28;20501;-69
2023/10/27 00:57:33;;;;;;;9.13;5.70;;;;;;;15.00;100.00;102124.06;5022426;28;20033;-69
2023/10/27 01:00:00;;;;;;;12.05;5.55;;;;;;;15.11;100.00;102170.94;5017953;28;20041;-69
2023/10/27 01:02:26;;;;;;;13.85;5.22;;;;;;;14.85;100.00;102175.47;5015693;28;20035;-69
2023/10/27 01:04:52;;;;;;;10.15;4.50;;;;;;;14.74;100.00;102231.91;5016399;28;20033;-69
2023/10/27 01:07:17;;;;;;;9.15;4.20;;;;;;;14.83;100.00;102301.84;5016264;28;20026;-69
2023/10/27 01:09:43;;;;;;;9.18;4.70;;;;;;;14.18;100.00;102230.63;5017630;28;20041;-69
2023/10/27 01:12:09;;;;;;;6.75;4.20;;;;;;;13.98;100.00;102223.06;5005224;28;20437;-69
2023/10/27 01:14:34;;;;;;;8.73;5.07;;;;;;;14.05;100.00;102390.13;5014173;28;20049;-69
2023/10/27 01:17:00;;;;;;;8.85;4.50;;;;;;;14.43;100.00;102498.38;5007040;28;20112;-70
2023/10/27 01:19:25;;;;;;;8.93;4.85;;;;;;;14.46;100.00;102552.97;5018700;28;20069;-69
2023/10/27 01:21:50;;;;;;;8.80;4.95;;;;;;;14.33;100.00;102545.34;5011109;28;20042;-68
2023/10/27 01:24:16;;;;;;;10.77;4.78;;;;;;;14.38;100.00;102543.63;5007005;28;20104;-69
2023/10/27 01:26:41;;;;;;;9.55;4.60;;;;;;;14.40;100.00;102570.91;5014196;28;20132;-70
2023/10/27 01:29:07;;;;;;;9.98;5.05;;;;;;;14.27;100.00;102553.84;5015064;28;20026;-70
2023/10/27 01:31:32;;;;;;;10.32;4.88;;;;;;;14.43;100.00;102601.63;5016909;28;20069;-70
2023/10/27 01:33:57;;;;;;;8.15;5.03;;;;;;;14.02;100.00;102551.31;5016914;28;20029;-69
2023/10/27 01:36:23;;;;;;;10.20;5.05;;;;;;;14.63;100.00;102627.19;5013010;28;20402;-70
2023/10/27 01:38:48;;;;;;;10.32;5.25;;;;;;;14.70;100.00;102654.50;5013779;28;20037;-70
2023/10/27 01:41:14;;;;;;;12.13;5.85;;;;;;;14.48;100.00;102638.31;5021243;28;20039;-70
2023/10/27 01:43:39;;;;;;;11.70;5.35;;;;;;;13.80;100.00;102550.47;5014097;28;20034;-70
2023/10/27 01:46:04;;;;;;;13.45;5.30;;;;;;;14.05;100.00;102608.44;5013106;28;20408;-70
2023/10/27 01:48:31;;;;;;;9.50;4.93;;;;;;;14.22;100.00;102645.09;5018481;28;20094;-70
2023/10/27 01:50:57;;;;;;;11.00;4.95;;;;;;;14.25;100.00;102664.75;5005052;28;20561;-71
2023/10/27 01:53:22;;;;;;;11.63;5.38;;;;;;;13.75;100.00;102604.16;5014285;28;20041;-70
2023/10/27 01:55:48;;;;;;;12.75;5.10;;;;;;;14.09;100.00;102665.56;5020216;28;20132;-70
2023/10/27 01:58:13;;;;;;;9.98;4.80;;;;;;;13.91;100.00;102628.91;5009839;28;20029;-70
2023/10/27 02:00:38;;;;;;;11.82;4.93;;;;;;;14.02;100.00;102643.41;5015712;28;20026;-70
2023/10/27 02:03:04;;;;;;;14.02;5.32;;;;;;;14.10;100.00;102662.19;5001276;28;20065;-70
2023/10/27 02:05:29;;;;;;;10.55;5.10;;;;;;;13.90;100.00;102634.03;5008219;28;20443;-70
2023/10/27 02:07:55;;;;;;;10.35;4.97;;;;;;;13.80;100.00;102633.16;5016143;28;20706;-70
2023/10/27 02:10:20;;;;;;;10.48;4.82;;;;;;;14.01;100.00;102690.28;5019417;28;20037;-69
2023/10/27 02:12:45;;;;;;;11.50;5.35;;;;;;;14.12;100.00;102724.44;5017310;28;20048;-69
2023/10/27 02:15:11;;;;;;;8.25;5.20;;;;;;;13.92;100.00;102691.16;5017745;28;20048;-71
2023/10/27 02:17:39;;;;;;;10.45;4.95;;;;;;;14.00;100.00;102714.19;5010004;28;20443;-70
2023/10/27 02:20:05;;;;;;;11.63;5.13;;;;;;;13.82;100.00;102689.44;5017639;28;20408;-71
2023/10/27 02:22:31;;;;;;;12.32;5.72;;;;;;;13.86;100.00;102742.28;5016963;28;20045;-70
2023/10/27 02:24:57;;;;;;;10.18;5.38;;;;;;;13.59;100.00;102712.34;5024444;28;20396;-70
2023/10/27 02:27:22;;;;;;;10.85;5.88;;;;;;;13.73;100.00;102753.31;5018416;28;20092;-70
2023/10/27 02:29:47;;;;;;;11.95;6.32;;;;;;;13.75;100.00;102762.69;5019751;28;20397;-69
2023/10/27 02:32:13;;;;;;;11.82;5.78;;;;;;;13.61;100.00;102746.44;5016433;28;20033;-70
2023/10/27 02:34:38;;;;;;;14.40;6.15;;;;;;;13.09;100.00;102712.97;5005371;28;20026;-70
2023/10/27 02:37:04;;;;;;;10.50;5.70;;;;;;;13.75;100.00;102818.09;5020423;28;20401;-70
2023/10/27 02:39:29;;;;;;;13.27;5.22;;;;;;;13.92;100.00;102855.69;5021389;28;20033;-70
2023/10/27 02:41:55;;;;;;;9.40;5.65;;;;;;;13.79;100.00;102869.28;5022498;28;20050;-71
2023/10/27 02:44:20;;;;;;;13.70;5.63;;;;;;;13.45;100.00;102844.34;5013047;28;20030;-72
2023/10/27 02:46:46;;;;;;;10.07;5.32;;;;;;;13.26;100.00;102822.09;5017178;28;20133;-71
2023/10/27 02:49:11;;;;;;;9.20;5.30;;;;;;;12.88;100.00;102780.03;5010928;28;20033;-72
2023/10/27 02:51:37;;;;;;;13.85;5.47;;;;;;;13.62;100.00;102859.81;5018148;28;20432;-75
2023/10/27 02:54:03;;;;;;;9.60;4.75;;;;;;;13.98;100.00;102905.19;5013829;28;20071;-70
2023/10/27 02:56:29;;;;;;;11.90;5.15;;;;;;;13.51;100.00;102857.16;5017690;28;20030;-70
2023/10/27 02:58:54;;;;;;;12.98;4.78;;;;;;;13.14;100.00;102799.00;5017085;28;20048;-69
2023/10/27 03:01:20;;;;;;;9.77;5.10;;;;;;;13.30;100.00;102834.03;5008067;28;20033;-70
2023/10/27 03:03:46;;;;;;;12.68;5.28;;;;;;;13.59;100.00;102814.63;5019536;28;20040;-70
2023/10/27 03:06:12;;;;;;;11.48;5.43;;;;;;;13.93;100.00;102841.22;5019036;28;20107;-72
2023/10/27 03:08:39;;;;;;;14.88;5.00;;;;;;;13.51;100.00;102816.28;5007939;28;20112;-71
2023/10/27 03:11:05;;;;;;;9.88;5.43;;;;;;;13.13;100.00;102781.97;5012850;28;20183;-71
2023/10/27 03:13:31;;;;;;;13.05;5.25;;;;;;;13.90;100.00;102820.75;5016578;28;20148;-71
2023/10/27 03:16:01;;;;;;;11.35;6.10;;;;;;;13.47;100.00;102772.81;5015759;28;20113;-71
2023/10/27 03:18:27;;;;;;;9.48;5.28;;;;;;;14.01;100.00;102728.66;5015585;28;20068;-70
2023/10/27 03:21:00;;;;;;;13.27;5.55;;;;;;;13.35;100.00;102607.47;5014014;28;20053;-71
2023/10/27 03:23:26;;;;;;;11.88;5.53;;;;;;;13.86;100.00;102666.41;5019921;28;20045;-70
2023/10/27 03:25:53;;;;;;;13.50;5.70;;;;;;;13.46;100.00;102566.63;5017282;28;20025;-71
2023/10/27 03:28:19;;;;;;;12.75;5.63;;;;;;;13.38;100.00;102267.63;5015859;28;20578;-68
2023/10/27 03:30:45;;;;;;;15.80;6.28;;;;;;;13.52;100.00;102186.66;5015458;28;20037;-70
2023/10/27 03:33:10;;;;;;;19.92;6.43;;;;;;;13.15;100.00;102113.56;5015111;28;20030;-72
2023/10/27 03:35:40;;;;;;;12.88;5.70;;;;;;;13.32;100.00;102031.72;5018089;28;20120;-70
2023/10/27 03:38:06;;;;;;;10.90;5.85;;;;;;;13.49;100.00;102035.88;5007822;28;20036;-71
2023/10/27 03:40:31;;;;;;;14.57;5.90;;;;;;;13.38;100.00;101986.56;5015556;28;20034;-71
2023/10/27 03:42:56;;;;;;;13.00;5.55;;;;;;;13.38;100.00;101938.00;5020950;28;20041;-71
2023/10/27 03:45:22;;;;;;;12.07;5.20;;;;;;;13.50;100.00;101931.94;5019234;28;20038;-71
2023/10/27 03:47:47;;;;;;;15.10;5.35;;;;;;;13.70;100.00;101982.06;5013891;28;20025;-70
2023/10/27 03:50:13;;;;;;;13.88;5.18;;;;;;;13.80;100.00;101953.00;5015950;28;20055;-70
2023/10/27 03:52:38;;;;;;;13.45;5.90;;;;;;;13.94;100.00;101904.25;5016503;28;20033;-70
2023/10/27 03:55:04;;;;;;;14.52;5.80;;;;;;;13.70;100.00;101825.25;5023001;28;20049;-71
2023/10/27 03:57:32;;;;;;;13.77;5.55;;;;;;;13.99;100.00;101728.56;5009177;28;20041;-70
2023/10/27 03:59:58;;;;;;;10.32;5.07;;;;;;;13.93;100.00;101746.56;5006475;28;20042;-70
2023/10/27 04:02:23;;;;;;;14.60;5.68;;;;;;;13.73;100.00;101707.63;5013653;28;20401;-70
2023/10/27 04:04:49;;;;;;;12.07;5.40;;;;;;;13.86;100.00;101707.44;5015293;28;20033;-71
2023/10/27 04:07:14;;;;;;;13.77;5.40;;;;;;;13.81;100.00;101670.00;5018580;28;20037;-70
2023/10/27 04:09:39;;;;;;;12.00;5.38;;;;;;;13.82;100.00;101625.69;5006277;28;20030;-70
2023/10/27 04:12:06;;;;;;;13.75;5.30;;;;;;;13.58;100.00;101552.78;5013224;28;20087;-70
2023/10/27 04:14:32;;;;;;;13.45;5.60;;;;;;;13.85;100.00;101560.00;5016848;28;20044;-70
2023/10/27 04:16:57;;;;;;;14.80;6.10;;;;;;;13.55;100.00;101491.47;5005643;28;20645;-70
2023/10/27 04:19:23;;;;;;;10.32;5.93;;;;;;;13.71;100.00;101459.69;5013327;28;20053;-70
2023/10/27 04:21:48;;;;;;;10.07;5.45;;;;;;;14.21;100.00;101483.53;5019333;28;20029;-70
2023/10/27 04:24:14;;;;;;;14.98;6.40;;;;;;;13.74;100.00;101405.97;5019239;28;20026;-71
2023/10/27 04:26:39;;;;;;;14.82;6.38;;;;;;;13.77;100.00;101346.25;5004944;28;20133;-70
2023/10/27 04:29:06;;;;;;;16.08;6.25;;;;;;;13.67;100.00;101260.41;5015734;28;20022;-70
2023/10/27 04:31:32;;;;;;;15.65;6.20;;;;;;;13.81;100.00;101215.81;5015509;28;20110;-70
2023/10/27 04:33:57;;;;;;;12.38;6.00;;;;;;;14.18;100.00;101245.72;5021145;28;20030;-71
2023/10/27 04:36:22;;;;;;;13.88;6.10;;;;;;;13.98;100.00;101166.03;5005361;28;20048;-71
2023/10/27 04:38:48;;;;;;;12.40;6.07;;;;;;;14.28;100.00;101155.13;5015244;28;20033;-70
2023/10/27 04:41:14;;;;;;;13.20;5.75;;;;;;;14.28;100.00;101053.59;5009286;28;20433;-71
2023/10/27 04:43:39;;;;;;;13.98;6.30;;;;;;;14.39;100.00;101000.47;5004312;28;20032;-70
2023/10/27 04:46:04;;;;;;;13.43;6.28;;;;;;;14.23;100.00;100986.38;5005344;28;20030;-71
2023/10/27 04:48:30;;;;;;;14.27;5.93;;;;;;;14.33;100.00;100969.06;5004669;28;20037;-70
2023/10/27 04:50:59;;;;;;;14.00;6.13;;;;;;;14.34;100.00;100963.91;5011938;28;20150;-71
2023/10/27 04:53:24;;;;;;;15.52;7.03;;;;;;;14.52;100.00;100986.44;5009714;28;20030;-70
2023/10/27 04:55:50;;;;;;;13.82;6.57;;;;;;;14.02;100.00;100904.25;5020985;28;20029;-71
2023/10/27 04:58:15;;;;;;;14.13;6.50;;;;;;;14.40;100.00;100919.44;5017142;28;20026;-71
2023/10/27 05:00:41;;;;;;;13.00;6.32;;;;;;;14.72;100.00;100924.44;5015111;28;20048;-73
2023/10/27 05:03:07;;;;;;;15.20;6.70;;;;;;;14.46;100.00;100894.47;5017909;28;20025;-71
2023/10/27 05:05:33;;;;;;;15.98;6.82;;;;;;;14.14;100.00;100811.88;5013074;28;20037;-70
2023/10/27 05:07:58;;;;;;;13.52;6.38;;;;;;;14.34;100.00;100794.25;5016508;28;20076;-70
2023/10/27 05:10:24;;;;;;;16.90;6.95;;;;;;;14.64;100.00;100827.41;5003487;28;20473;-71
2023/10/27 05:12:49;;;;;;;14.23;6.95;;;;;;;14.57;100.00;100804.59;5015617;28;20049;-70
2023/10/27 05:15:15;;;;;;;18.45;8.25;;;;;;;14.36;100.00;100760.03;5017374;28;20042;-70
2023/10/27 05:17:40;;;;;;;21.13;8.48;;;;;;;14.56;100.00;100778.16;5019825;28;20116;-70
2023/10/27 05:20:06;;;;;;;19.65;8.25;;;;;;;14.34;100.00;100772.03;5018774;28;20036;-70
2023/10/27 05:22:32;;;;;;;23.63;10.77;;;;;;;14.27;100.00;100733.88;5004534;28;20025;-70
2023/10/27 05:24:57;;;;;;;20.40;10.82;;;;;;;14.50;100.00;100746.81;5005694;28;20386;-70
2023/10/27 05:27:24;;;;;;;23.38;10.30;;;;;;;14.45;100.00;100721.38;5016327;28;20037;-70
2023/10/27 05:29:50;;;;;;;25.52;10.82;;;;;;;14.66;100.00;100756.53;5021189;28;20030;-69
2023/10/27 05:32:17;;;;;;;23.77;10.25;;;;;;;14.61;100.00;100732.81;5008399;28;20025;-70
2023/10/27 05:34:43;;;;;;;21.55;9.93;;;;;;;14.45;100.00;100746.97;5020170;28;20030;-70
2023/10/27 05:37:09;;;;;;;16.40;9.32;;;;;;;14.72;100.00;100756.31;5019770;28;20033;-70
2023/10/27 05:39:35;;;;;;;15.38;8.02;;;;;;;14.66;100.00;100736.03;5016370;28;20510;-70
2023/10/27 05:42:00;;;;;;;18.77;7.78;;;;;;;15.56;100.00;100769.69;5013977;28;20040;-70
2023/10/27 05:44:26;;;;;;;16.25;7.60;;;;;;;16.46;100.00;100816.75;5008306;28;20040;-71
2023/10/27 05:46:51;;;;;;;16.50;7.88;;;;;;;15.74;100.00;100874.19;5015824;28;20025;-70
2023/10/27 05:49:16;;;;;;;26.42;10.32;;;;;;;16.45;100.00;101000.78;5022030;28;20029;-71
2023/10/27 05:51:42;;;;;;;17.23;8.95;;;;;;;20.64;100.00;101455.94;5019801;28;20033;-69
2023/10/27 05:54:07;;;;;;;16.27;8.10;;;;;;;20.43;100.00;102411.44;5016381;28;20026;-70
2023/10/27 05:56:33;;;;;;;20.50;8.40;;;;;;;19.70;100.00;103303.47;5020467;28;20502;-70
2023/10/27 05:58:58;;;;;;;20.80;8.40;;;;;;;16.79;100.00;103407.16;5021946;28;21025;-71
2023/10/27 06:01:23;;;;;;;18.73;8.60;;;;;;;20.27;100.00;103666.34;5018660;28;20034;-69
2023/10/27 06:03:49;;;;;;;25.67;9.30;;;;;;;21.53;100.00;103601.03;5010385;28;20045;-69
2023/10/27 06:06:15;;;;;;;31.52;9.50;;;;;;;18.99;100.00;103166.66;5020731;28;20034;-70
2023/10/27 06:08:44;;;;;;;28.17;10.00;;;;;;;19.99;100.00;102798.44;5016701;28;20041;-69
2023/10/27 06:11:10;;;;;;;34.97;9.25;;;;;;;18.78;100.00;102499.97;5011234;28;20511;-69
2023/10/27 06:13:36;;;;;;;29.08;10.07;;;;;;;16.77;100.00;102375.78;5019988;28;20041;-69
2023/10/27 06:16:02;;;;;;;22.92;9.43;;;;;;;18.46;100.00;102633.75;5017931;28;20092;-70
2023/10/27 06:18:28;;;;;;;17.95;8.75;;;;;;;18.07;100.00;102588.91;5018690;28;20041;-70
2023/10/27 06:20:53;;;;;;;21.67;8.10;;;;;;;17.65;100.00;102555.31;5021990;28;20389;-70
2023/10/27 06:23:18;;;;;;;22.70;8.88;;;;;;;17.41;100.00;102638.78;5023185;28;20041;-70
2023/10/27 06:25:44;;;;;;;15.43;7.40;;;;;;;16.61;100.00;102921.50;5025066;28;20040;-69
2023/10/27 06:28:09;;;;;;;21.85;7.72;;;;;;;16.84;100.00;103020.75;5009331;28;20206;-70
2023/10/27 06:30:35;;;;;;;18.73;7.78;;;;;;;16.88;100.00;102983.00;5014185;28;20026;-70
2023/10/27 06:33:01;;;;;;;16.17;6.90;;;;;;;17.48;100.00;103069.22;5015657;28;20022;-70
2023/10/27 06:35:26;;;;;;;15.98;6.65;;;;;;;17.25;100.00;103083.06;5019268;28;20507;-70
2023/10/27 06:37:51;;;;;;;16.52;7.68;;;;;;;17.51;100.00;103100.13;5008791;28;20503;-69
2023/10/27 06:40:17;;;;;;;19.90;7.40;;;;;;;17.07;100.00;103062.59;5015251;28;20041;-69
2023/10/27 06:42:42;;;;;;;14.63;6.55;;;;;;;17.13;100.00;103078.00;5021377;28;20397;-70
2023/10/27 06:45:08;;;;;;;16.45;6.57;;;;;;;17.43;100.00;103146.44;5018226;28;20408;-71
2023/10/27 06:47:35;;;;;;;16.65;6.20;;;;;;;17.94;100.00;103227.69;5018718;28;20044;-71
2023/10/27 06:50:04;;;;;;;17.35;6.75;;;;;;;18.03;100.00;103232.78;5017566;28;20393;-71
2023/10/27 06:52:31;;;;;;;18.63;6.28;;;;;;;17.90;100.00;103214.00;5014712;28;20035;-72
2023/10/27 06:54:57;;;;;;;14.48;5.40;;;;;;;17.54;100.00;103170.44;5007408;28;20038;-71
2023/10/27 06:57:23;;;;;;;16.20;5.68;;;;;;;17.78;100.00;103202.91;5008652;28;20047;-69
2023/10/27 06:59:48;;;;;;;21.65;5.90;;;;;;;17.58;100.00;103176.41;5008723;28;20034;-71
2023/10/27 07:02:14;;;;;;;23.02;5.90;;;;;;;18.10;100.00;103240.44;5018337;28;20132;-69
2023/10/27 07:04:40;;;;;;;14.13;5.90;;;;;;;18.31;100.00;103249.75;5018043;28;20051;-69
2023/10/27 07:07:05;;;;;;;22.17;6.07;;;;;;;18.95;100.00;103296.53;5012053;28;20034;-69
2023/10/27 07:09:31;;;;;;;22.30;6.57;;;;;;;18.20;100.00;103172.53;5009131;28;20120;-70
2023/10/27 07:11:57;;;;;;;15.35;5.88;;;;;;;18.43;100.00;103172.41;5007210;28;20099;-69
2023/10/27 07:14:23;;;;;;;24.45;5.95;;;;;;;18.85;100.00;103184.00;5017292;28;20103;-69
2023/10/27 07:16:52;;;;;;;21.30;6.30;;;;;;;19.03;100.00;103139.97;5017317;28;20536;-70
2023/10/27 07:19:18;;;;;;;18.40;6.63;;;;;;;18.80;100.00;103049.97;5016732;28;20458;-69
2023/10/27 07:21:44;;;;;;;18.70;5.90;;;;;;;19.19;100.00;103089.88;5016367;28;20029;-71
2023/10/27 07:24:10;;;;;;;21.15;6.45;;;;;;;19.26;100.00;103085.47;5013274;28;20040;-70
2023/10/27 07:26:35;;;;;;;18.90;6.00;;;;;;;19.03;100.00;102990.34;5014735;28;20105;-70
2023/10/27 07:29:01;;;;;;;15.38;5.45;;;;;;;19.58;100.00;102969.72;5008391;28;20037;-69
2023/10/27 07:31:26;;;;;;;16.88;6.43;;;;;;;19.68;100.00;102728.53;5018910;28;20046;-71
2023/10/27 07:33:52;;;;;;;19.83;6.60;;;;;;;19.21;100.00;102564.38;5015310;28;20051;-70
2023/10/27 07:36:17;;;;;;;19.35;6.38;;;;;;;19.94;100.00;102398.22;5016525;28;20527;-70
2023/10/27 07:38:43;;;;;;;19.27;6.10;;;;;;;19.44;100.00;102210.31;5016162;28;20030;-70
2023/10/27 07:41:08;;;;;;;20.75;6.10;;;;;;;20.06;100.00;102258.38;5016901;28;20025;-69
2023/10/27 07:43:34;;;;;;;23.38;5.85;;;;;;;20.08;100.00;102155.84;5017289;28;20021;-71
2023/10/27 07:46:03;;;;;;;20.38;5.60;;;;;;;20.24;100.00;102139.00;5006828;28;20037;-69
2023/10/27 07:48:29;;;;;;;23.95;6.00;;;;;;;20.89;100.00;102121.19;5021154;28;20032;-70
2023/10/27 07:50:57;;;;;;;21.38;5.88;;;;;;;19.97;100.00;101958.19;5019453;28;20427;-70
2023/10/27 07:53:26;;;;;;;22.60;6.53;;;;;;;20.60;100.00;101930.06;5016729;28;20022;-70
2023/10/27 07:55:52;;;;;;;23.15;5.82;;;;;;;21.13;100.00;101951.28;5011849;28;20077;-69
2023/10/27 07:58:18;;;;;;;23.80;5.95;;;;;;;21.13;100.00;101840.88;5017440;28;20049;-70
2023/10/27 08:00:43;;;;;;;26.80;6.40;;;;;;;21.38;100.00;101807.00;5016847;28;20030;-70
2023/10/27 08:03:09;;;;;;;26.92;6.30;;;;;;;20.51;100.00;101636.59;5013982;28;20088;-70
2023/10/27 08:05:35;;;;;;;23.92;6.30;;;;;;;21.30;100.00;101653.81;5019599;28;20119;-70
2023/10/27 08:08:03;;;;;;;22.05;6.03;;;;;;;21.19;100.00;101622.41;5018699;28;20109;-70
2023/10/27 08:10:28;;;;;;;32.38;6.18;;;;;;;21.32;100.00;101608.84;5014413;28;20040;-70
2023/10/27 08:12:54;;;;;;;24.42;6.10;;;;;;;21.00;100.00;101604.25;5006653;28;20057;-71
2023/10/27 08:15:19;;;;;;;30.08;6.43;;;;;;;21.20;100.00;101605.97;5005914;28;20025;-70
2023/10/27 08:17:45;;;;;;;29.30;6.70;;;;;;;21.29;100.00;101602.97;5007112;28;20448;-69
2023/10/27 08:20:11;;;;;;;20.98;6.00;;;;;;;20.80;100.00;101550.00;5005322;28;22594;-70
2023/10/27 08:22:37;;;;;;;30.77;7.13;;;;;;;21.07;100.00;101589.34;5007601;28;20034;-70
2023/10/27 08:25:03;;;;;;;37.58;7.05;;;;;;;20.78;100.00;101531.13;5006315;28;20048;-69
2023/10/27 08:27:30;;;;;;;25.30;6.57;;;;;;;21.35;100.00;101572.44;5007664;28;20030;-69
2023/10/27 08:29:57;;;;;;;31.35;6.80;;;;;;;21.37;100.00;101552.50;5007615;28;20033;-69
2023/10/27 08:32:22;;;;;;;23.20;6.70;;;;;;;21.46;100.00;101483.94;5006852;28;20030;-69
2023/10/27 08:34:48;;;;;;;26.45;6.47;;;;;;;21.92;100.00;101480.78;5007156;28;20045;-70
2023/10/27 08:37:16;;;;;;;24.45;5.95;;;;;;;22.26;100.00;101447.00;5007581;28;20029;-69
2023/10/27 08:39:42;;;;;;;24.77;6.00;;;;;;;21.86;100.00;101311.91;5007677;28;20057;-70
2023/10/27 08:42:08;;;;;;;25.50;6.35;;;;;;;22.28;100.00;101343.28;5006861;28;20026;-70
2023/10/27 08:44:34;;;;;;;25.73;6.22;;;;;;;21.97;100.00;101232.69;5005279;28;20037;-72
2023/10/27 08:47:03;;;;;;;26.42;5.60;;;;;;;21.33;100.00;101165.38;5005774;28;20619;-69
2023/10/27 08:49:28;;;;;;;22.98;5.82;;;;;;;21.88;100.00;101264.28;5004817;28;20508;-70
2023/10/27 08:51:56;;;;;;;29.50;6.35;;;;;;;21.55;100.00;101235.00;5006317;28;20084;-70
2023/10/27 08:54:22;;;;;;;23.30;5.88;;;;;;;21.85;100.00;101269.63;5003052;28;20030;-70
2023/10/27 08:56:47;;;;;;;26.58;6.40;;;;;;;21.38;100.00;101217.75;5005365;28;20037;-70
2023/10/27 08:59:13;;;;;;;23.88;6.13;;;;;;;21.69;100.00;101292.03;5006122;28;20127;-70
2023/10/27 09:01:38;;;;;;;35.20;6.40;;;;;;;21.88;100.00;101300.53;5004177;28;20026;-70
2023/10/27 09:04:20;;;;;;;27.08;5.70;;;;;;;21.40;100.00;101266.84;5001447;28;20038;-70
2023/10/27 09:06:46;;;;;;;21.88;6.00;;;;;;;21.65;100.00;101289.69;4653783;28;10000343;-70
2023/10/27 09:09:12;;;;;;;21.55;5.88;;;;;;;21.83;100.00;101297.34;5003384;28;20120;-71
2023/10/27 09:11:48;;;;;;;24.65;6.40;;;;;;;21.72;100.00;101280.69;5004346;28;20033;-70
2023/10/27 09:14:23;;;;;;;20.48;5.95;;;;;;;21.69;100.00;101240.25;5008600;28;20133;-70
2023/10/27 09:16:49;;;;;;;18.42;5.60;;;;;;;21.77;100.00;101188.88;5002122;28;20096;-70
2023/10/27 09:19:25;;;;;;;24.25;6.55;;;;;;;21.48;100.00;101099.03;5011208;28;20033;-71
2023/10/27 09:21:54;;;;;;;27.98;6.60;;;;;;;21.86;100.00;101172.03;5006474;28;20030;-70
2023/10/27 09:24:21;;;;;;;20.23;5.68;;;;;;;21.90;100.00;101127.75;5010114;28;20033;-70
2023/10/27 09:26:47;;;;;;;24.58;5.93;;;;;;;22.27;100.00;101136.84;5019630;28;20033;-72
2023/10/27 09:29:12;;;;;;;23.17;5.88;;;;;;;22.49;100.00;101163.19;5017876;28;20115;-71
2023/10/27 09:31:38;;;;;;;28.88;5.47;;;;;;;22.75;100.00;101096.84;5004624;28;20037;-69
2023/10/27 09:34:26;;;;;;;21.55;5.72;;;;;;;22.54;100.00;101047.06;5014547;28;20039;-70
2023/10/27 09:36:57;;;;;;;24.67;5.85;;;;;;;22.48;100.00;100989.59;4999864;28;20033;-69
2023/10/27 09:39:23;;;;;;;21.07;5.43;;;;;;;23.06;100.00;100962.56;5011471;28;20508;-69
2023/10/27 09:42:00;;;;;;;22.55;5.18;;;;;;;22.63;100.00;100880.63;5013284;28;20042;-70
2023/10/27 09:45:03;;;;;;;23.90;5.72;;;;;;;22.91;100.00;100853.75;5020806;28;20030;-70
2023/10/27 09:47:41;;;;;;;22.00;5.63;;;;;;;23.32;100.00;100783.56;5007733;28;20081;-72
2023/10/27 09:50:07;;;;;;;23.40;5.55;;;;;;;22.87;100.00;100697.50;5021095;28;20030;-70
2023/10/27 09:52:39;;;;;;;25.70;6.50;;;;;;;23.11;100.00;100682.03;5019953;28;20052;-73
2023/10/27 09:55:05;;;;;;;22.95;6.00;;;;;;;22.20;100.00;100586.22;5012103;28;20502;-73
2023/10/27 09:57:31;;;;;;;22.55;5.63;;;;;;;22.74;100.00;100597.28;5019178;28;20806;-72
2023/10/27 09:59:59;;;;;;;23.60;5.30;;;;;;;22.85;100.00;100571.44;5023915;28;20036;-73
2023/10/27 10:02:25;;;;;;;22.80;5.97;;;;;;;22.94;100.00;100537.88;5006470;28;20029;-70
2023/10/27 10:04:50;;;;;;;21.25;5.25;;;;;;;23.07;100.00;100575.03;5021316;28;20030;-73
2023/10/27 10:07:44;;;;;;;23.55;5.13;;;;;;;22.64;100.00;100544.38;5020997;28;20033;-70
2023/10/27 10:10:16;;;;;;;12.82;4.38;;;;;;;22.69;100.00;100532.75;5022375;28;20104;-71
2023/10/27 10:13:05;;;;;;;20.38;5.78;;;;;;;22.58;100.00;100537.84;5018222;28;20475;-75
2023/10/27 10:15:36;;;;;;;19.33;5.90;;;;;;;22.58;100.00;100483.38;5025738;28;20060;-70
2023/10/27 10:18:04;;;;;;;21.30;5.30;;;;;;;22.69;100.00;100459.31;5014308;28;20034;-70
2023/10/27 10:20:44;;;;;;;19.70;4.95;;;;;;;23.21;100.00;100499.59;5021893;28;20034;-74
2023/10/27 10:23:10;;;;;;;16.60;4.72;;;;;;;23.45;100.00;100468.50;5017011;28;20032;-72
2023/10/27 10:25:36;;;;;;;18.13;4.72;;;;;;;23.00;100.00;100422.47;5005763;28;20087;-70
2023/10/27 10:28:07;;;;;;;23.30;5.22;;;;;;;23.21;100.00;100416.56;5009263;28;20160;-69
2023/10/27 10:30:36;;;;;;;;;;;;;;;22.74;100.00;100382.06;5005986;28;20048;-70
2023/10/27 10:33:16;;;;;;;23.33;5.53;;;;;;;23.52;100.00;100402.19;5009238;28;19924;-71
2023/10/27 10:35:52;;;;;;;17.25;4.90;;;;;;;23.54;100.00;100356.16;5009069;28;20033;-71
2023/10/27 10:38:26;;;;;;;21.95;4.85;;;;;;;23.72;100.00;100315.81;5021151;28;20037;-73
2023/10/27 10:40:59;;;;;;;21.55;4.97;;;;;;;23.89;100.00;100272.94;5016589;28;20037;-71
2023/10/27 10:43:24;;;;;;;18.10;4.85;;;;;;;23.71;100.00;100228.44;5015207;28;20033;-71
2023/10/27 10:45:53;;;;;;;27.17;4.93;;;;;;;23.74;100.00;100204.84;5007533;28;20547;-73
2023/10/27 10:48:20;;;;;;;19.42;4.43;;;;;;;23.27;100.00;100128.03;5002929;28;20030;-70
2023/10/27 10:50:48;;;;;;;24.13;4.30;;;;;;;23.81;100.00;100156.66;5003791;28;20112;-71
2023/10/27 10:53:17;;;;;;;18.95;4.68;;;;;;;23.62;100.00;100119.28;5008577;28;20033;-73
2023/10/27 10:55:47;;;;;;;20.08;4.55;;;;;;;23.40;100.00;100073.44;5020585;28;20040;-70
2023/10/27 10:58:26;;;;;;;18.35;4.85;;;;;;;24.00;100.00;100060.72;5008391;28;20413;-71
2023/10/27 11:00:52;;;;;;;17.08;4.72;;;;;;;23.97;100.00;100016.78;5009235;28;20088;-72
2023/10/27 11:03:21;;;;;;;18.05;4.50;;;;;;;23.84;100.00;99935.66;5020421;28;20136;-70
2023/10/27 11:05:47;;;;;;;15.90;4.60;;;;;;;23.61;100.00;99933.31;5023895;28;20397;-71
2023/10/27 11:08:23;;;;;;;19.65;4.45;;;;;;;23.85;100.00;99965.84;5006549;28;20116;-70